EKYT

Aalborg Airport

Aalborg, Denmark
METAR EKYT 210520Z AUTO 26005KT 9999NDV NCD 14/11 Q1019
Observed Flight Rules
Aug-21 @ 05:20 UTC (9 hours ago)
Wind Clouds
260° at 5 knots
  • Clear skies
Temperatures Readings
Current 14°C / 57°F
Dewpoint 11°C / 52°F
Humidity 82%
Altimeter 30.09" Hg
Pressure 1019 hPa
Elevation 3
METAR EKYT 210520Z AUTO 26005KT 9999NDV NCD 14/11 Q1019
Observed Flight Rules
Aug-21 @ 05:20 UTC
(9 hours ago)
Wind
260° at 5 knots
Clouds
  • Clear skies
Temperature Dewpoint
14°C / 57°F 11°C / 52°F
Humidity Altimeter Pressure
82% 30.09" Hg 1019 hPa